Flight Track Log - Related Links

Times and Time Zones

All times are in EDT time to prevent confusion due to time zone crossing. See the UAL635 flight status page for this flight to view local times or setup timezone preferences in your user account.


Time Position Orientation Groundspeed Altitude Reporting Facility
EDT Latitude Longitude Course Direction KTS MPH feet Rate Location/Type
Wed 06:24:02 AM 42.7681 -73.8058 282° West 150 173 1,400  Level Boston Center
Wed 06:25:09 AM 42.8181 -73.8375 335° Northwest 212 244 3,600 2,457 Climbing Boston Center
Wed 06:26:00 AM 42.8094 -74.2016 284° West  Level FlightAware Approximate
Wed 06:26:09 AM 42.8625 -73.9133 309° West 259 298 6,600  Level Boston Center
Wed 06:27:00 AM 42.8340 -74.3374 283° West  Level FlightAware Approximate
Wed 06:27:10 AM 42.9094 -73.9928 309° West 267 307 10,200  Level Boston Center
Wed 06:28:00 AM 42.8568 -74.4738 283° West  Level FlightAware Approximate
Wed 06:28:12 AM 42.9628 -74.0858 308° West 321 369 12,300  Level Boston Center
Wed 06:29:00 AM 42.8912 -74.5996 282° West  Level FlightAware Approximate
Wed 06:29:10 AM 43.0278 -74.1925 310° West 337 388 15,500  Level Boston Center
Wed 06:30:14 AM 43.0494 -74.3167 283° West 344 396 17,800 2,262 Climbing Boston Center
Wed 06:31:12 AM 43.0583 -74.4411 276° West 362 417 20,100 2,281 Climbing Boston Center
Wed 06:32:15 AM 43.0675 -74.5797 275° West 366 421 22,400 2,000 Climbing Boston Center
Wed 06:33:15 AM 43.0764 -74.7214 275° West 373 429 24,200 1,869 Climbing Boston Center
Wed 06:34:17 AM 43.0872 -74.8781 275° West 391 450 26,200 1,694 Climbing Boston Center
Wed 06:35:19 AM 43.0964 -75.0275 275° West 393 452 27,700 1,561 Climbing Boston Center
Wed 06:36:20 AM 43.1056 -75.1872 275° West 408 470 29,400 1,475 Climbing Boston Center
Wed 06:37:21 AM 43.1136 -75.3458 274° West 416 479 30,700 1,377 Climbing Boston Center
Wed 06:38:22 AM 43.1242 -75.5058 275° West 421 484 32,200 1,415 Climbing Boston Center
Wed 06:39:24 AM 43.1328 -75.6664 274° West 421 484 33,600 885 Climbing Boston Center
Wed 06:40:24 AM 43.1411 -75.8275 274° West 422 486 34,000 200 Climbing Boston Center
Wed 06:41:24 AM 43.1511 -76.0217 274° West 427 491 34,000  Level Boston Center
Wed 06:42:27 AM 43.1600 -76.1833 274° West 427 491 34,000  Level Boston Center
Wed 06:43:28 AM 43.1600 -76.3472 270° West 433 498 34,000  Level Boston Center
Wed 06:44:27 AM 43.1606 -76.5078 270° West 428 493 34,000  Level Boston Center
Wed 06:45:27 AM 43.1597 -76.6661 270° West 419 482 34,000  Level Boston Center
Wed 06:46:31 AM 43.1592 -76.8292 270° West 428 493 34,000  Level Boston Center
Wed 06:47:27 AM 43.1600 -76.9947 270° West 431 496 34,000 -51 Level Cleveland Center
Wed 06:48:28 AM 43.1575 -77.1575 269° West 431 496 33,900  Descending Cleveland Center
Wed 06:49:30 AM 43.1561 -77.3189 269° West 430 495 34,000 244 Climbing Cleveland Center
Wed 06:50:31 AM 43.1556 -77.4792 270° West 426 490 34,400 878 Climbing Cleveland Center
Wed 06:51:33 AM 43.1522 -77.6731 269° West 427 491 35,800 1,122 Climbing Cleveland Center
Wed 06:52:34 AM 43.1497 -77.8347 269° West 428 493 36,700 927 Climbing Cleveland Center
Wed 06:53:36 AM 43.1472 -77.9981 269° West 430 495 37,700 634 Climbing Cleveland Center
Wed 06:54:37 AM 43.1456 -78.1600 269° West 430 495 38,000 146 Climbing Cleveland Center
Wed 06:55:39 AM 43.1422 -78.3225 268° West 430 495 38,000  Level Cleveland Center
Wed 06:56:40 AM 43.1375 -78.4853 268° West 431 496 38,000  Level Cleveland Center
Wed 06:57:42 AM 43.1333 -78.6494 268° West 432 497 38,000  Level Cleveland Center
Wed 06:58:43 AM 43.1283 -78.8464 268° West 434 499 38,000  Level Cleveland Center
Wed 06:59:28 AM 43.1167 -78.9500 261° West 440 506 38,000  Level Toronto Center
Wed 07:00:28 AM 43.1167 -79.1333 270° West 440 506 38,000  Level Toronto Center
Wed 07:01:28 AM 43.1000 -79.2833 261° West 440 506 38,000  Level Toronto Center
Wed 07:02:28 AM 43.1000 -79.4500 270° West 430 495 38,000 -50 Level Toronto Center
Wed 07:03:28 AM 43.1000 -79.6167 270° West 430 495 37,900 -50 Descending Toronto Center
Wed 07:04:28 AM 43.0833 -79.7667 261° West 420 483 37,900  Level Toronto Center
Wed 07:05:28 AM 43.0833 -79.9333 270° West 420 483 37,900  Level Toronto Center
Wed 07:06:28 AM 43.0833 -80.0833 270° West 420 483 37,900  Level Toronto Center
Wed 07:07:28 AM 43.0667 -80.2500 262° West 420 483 37,900 50 Level Toronto Center
Wed 07:08:28 AM 43.0667 -80.4167 270° West 430 495 38,000 50 Climbing Toronto Center
Wed 07:09:28 AM 43.0500 -80.5667 261° West 430 495 38,000  Level Toronto Center
Wed 07:10:28 AM 43.0500 -80.7333 270° West 430 495 38,000  Level Toronto Center
Wed 07:11:28 AM 43.0333 -80.9167 263° West 430 495 38,000  Level Toronto Center
Wed 07:12:28 AM 43.0167 -81.0500 260° West 430 495 38,000  Level Toronto Center
Wed 07:13:28 AM 43.0167 -81.2333 270° West 430 495 38,000  Level Toronto Center
Wed 07:14:28 AM 43.0167 -81.3833 270° West 430 495 38,000  Level Toronto Center
Wed 07:15:28 AM 43.0167 -81.5500 270° West 430 495 38,000  Level Toronto Center
Wed 07:16:28 AM 43.0167 -81.7000 270° West 430 495 38,000  Level Toronto Center
Wed 07:17:28 AM 43.0167 -81.8667 270° West 430 495 38,000 -50 Level Toronto Center
Wed 07:18:28 AM 43.0000 -82.0500 263° West 430 495 37,900  Descending Toronto Center
Wed 07:19:28 AM 43.0000 -82.2167 270° West 430 495 38,000 50 Climbing Toronto Center
Wed 07:20:28 AM 43.0000 -82.3667 270° West 430 495 38,000  Level Toronto Center
Wed 07:21:28 AM 43.0000 -82.5333 270° West 430 495 38,000 -58 Level Toronto Center
Wed 07:22:12 AM 43.0044 -82.6333 274° West 430 495 37,900 -906 Descending Cleveland Center
Wed 07:23:14 AM 43.0231 -82.7917 279° West 428 493 36,400 -1,984 Descending Cleveland Center
Wed 07:24:16 AM 43.0500 -82.9658 282° West 399 459 33,800 -2,146 Descending Cleveland Center
Wed 07:25:17 AM 43.0631 -83.1178 277° West 404 465 32,000 -878 Descending Cleveland Center
Wed 07:26:19 AM 43.0450 -83.2739 261° West 417 480 32,000  Level Cleveland Center
Wed 07:27:21 AM 43.0269 -83.4261 261° West 415 478 32,000 -48 Level Cleveland Center
Wed 07:28:23 AM 43.0086 -83.5772 261° West 411 473 31,900  Descending Cleveland Center
Wed 07:29:25 AM 43.0058 -83.7544 269° West 403 464 32,000 48 Climbing Cleveland Center
Wed 07:30:27 AM 43.0303 -83.8997 283° West 397 457 32,000 -48 Level Cleveland Center
Wed 07:31:29 AM 43.0550 -84.0453 283° West 397 457 31,900  Descending Cleveland Center
Wed 07:32:31 AM 43.0797 -84.1897 283° West 396 456 32,000 49 Climbing Cleveland Center
Wed 07:33:32 AM 43.0658 -84.3364 263° West 404 465 32,000  Level Cleveland Center
Wed 07:34:34 AM 43.0219 -84.5064 251° West 405 466 32,000 -48 Level Cleveland Center
Wed 07:35:36 AM 42.9881 -84.6517 252° West 405 466 31,900  Descending Cleveland Center
Wed 07:36:38 AM 42.9544 -84.7956 252° West 403 464 32,000 56 Climbing Cleveland Center
Wed 07:37:23 AM 42.9281 -84.9122 253° West 403 464 32,000  Level Chicago Center
Wed 07:38:25 AM 42.8922 -85.0592 252° West 403 464 32,000  Level Chicago Center
Wed 07:39:27 AM 42.8575 -85.2047 252° West 406 467 32,000  Level Chicago Center
Wed 07:40:29 AM 42.8225 -85.3519 252° West 406 467 32,000  Level Chicago Center
Wed 07:41:30 AM 42.7867 -85.4989 252° West 407 468 32,000 -390 Level Chicago Center
Wed 07:42:32 AM 42.7600 -85.6475 256° West 406 467 31,200 -1,887 Descending Chicago Center
Wed 07:43:34 AM 42.7328 -85.7975 256° West 406 467 28,100 -2,855 Descending Chicago Center
Wed 07:44:36 AM 42.7056 -85.9478 256° West 406 467 25,300 -2,855 Descending Chicago Center
Wed 07:45:38 AM 42.6731 -86.1211 256° West 394 453 22,200 -2,710 Descending Chicago Center
Wed 07:46:40 AM 42.6478 -86.2617 256° West 386 444 19,700 -2,371 Descending Chicago Center
Wed 07:47:42 AM 42.6228 -86.3950 256° West 368 423 17,300 -2,323 Descending Chicago Center
Wed 07:48:44 AM 42.5972 -86.5253 255° West 358 412 14,900 -2,098 Descending Chicago Center
Wed 07:49:45 AM 42.5736 -86.6528 256° West 349 402 13,000 -1,415 Descending Chicago Center
Wed 07:50:47 AM 42.5481 -86.7800 255° West 349 402 12,000 -968 Descending Chicago Center
Wed 07:51:49 AM 42.5133 -86.8997 249° West 346 398 11,000 -968 Descending Chicago Center
Wed 07:52:51 AM 42.4747 -87.0411 250° West 337 388 10,000 -532 Descending Chicago Center
Wed 07:53:53 AM 42.4436 -87.1519 249° West 314 361 9,900 -726 Descending Chicago Center
Wed 07:54:55 AM 42.4181 -87.2458 250° West 270 311 8,500 -1,403 Descending Chicago Center
Wed 07:55:57 AM 42.3917 -87.3406 249° West 269 310 7,000 -1,210 Descending Chicago Center
Wed 07:56:59 AM 42.3506 -87.4139 233° Southwest 268 308 6,000 -484 Descending Chicago Center
Wed 07:58:01 AM 42.2653 -87.4653 204° Southwest 281 323 6,000  Level Chicago Center
Wed 07:59:03 AM 42.1947 -87.5067 203° Southwest 277 319 6,000  Level Chicago Center
Wed 08:00:05 AM 42.1258 -87.5464 203° Southwest 270 311 6,000 -480 Level Chicago Center
Wed 08:01:08 AM 42.0622 -87.5839 204° Southwest 234 269 5,000 -960 Descending Chicago Center
Wed 08:02:10 AM 42.0194 -87.6422 225° Southwest 227 261 4,000 -871 Descending Chicago Center
Wed 08:03:12 AM 42.0039 -87.7236 256° West 219 252 3,200 -919 Descending Chicago Center
Wed 08:04:14 AM 42.0033 -87.7994 269° West 206 237 2,100 -919 Descending Chicago Center
Wed 08:05:16 AM 42.0022 -87.8631 269° West 158 182 1,300 -629 Descending Chicago Center
Wed 08:06:18 AM 42.0025 -87.9058 271° West 137 158 800 -484 Descending Chicago Center

Login

Don't have an account? Register now (free) for customized features, flight alerts, and more!